Time;durP1;ratioP1;P1;durP2;ratioP2;P2;SDS_P1;SDS_P2;PMS_P1;PMS_P2;Temp;Humidity;BMP_temperature;BMP_pressure;BME280_temperature;BME280_humidity;BME280_pressure;Samples;Min_cycle;Max_cycle;Signal;HPM_P1;HPM_P2
2021/08/05 00:01:24;;;;;;;18.27;16.53;;;21.00;69.20;;;;;;5074143;28;20958;-75
2021/08/05 00:03:51;;;;;;;18.37;16.77;;;20.90;69.10;;;;;;5074259;28;20507;-75
2021/08/05 00:06:18;;;;;;;17.37;15.97;;;20.90;69.30;;;;;;5074046;28;20839;-75
2021/08/05 00:08:46;;;;;;;17.87;16.27;;;20.90;69.50;;;;;;5073791;28;20452;-75
2021/08/05 00:11:12;;;;;;;18.60;17.10;;;20.90;70.10;;;;;;5074319;28;20444;-75
2021/08/05 00:13:39;;;;;;;16.40;15.17;;;20.80;70.50;;;;;;5074226;28;20436;-75
2021/08/05 00:16:06;;;;;;;18.17;16.77;;;20.80;70.90;;;;;;5074254;28;20807;-75
2021/08/05 00:18:32;;;;;;;18.10;16.80;;;20.80;71.00;;;;;;5074243;28;20440;-75
2021/08/05 00:20:59;;;;;;;21.37;19.30;;;20.70;71.00;;;;;;5074131;28;20444;-75
2021/08/05 00:23:26;;;;;;;21.40;19.80;;;20.70;71.10;;;;;;5073863;28;20480;-75
2021/08/05 00:25:54;;;;;;;19.50;18.00;;;20.70;71.30;;;;;;5073991;28;20471;-75
2021/08/05 00:28:21;;;;;;;20.17;18.57;;;20.70;71.50;;;;;;5073985;28;20896;-75
2021/08/05 00:30:47;;;;;;;20.63;19.03;;;20.70;71.60;;;;;;5073957;28;20448;-75
2021/08/05 00:33:14;;;;;;;22.60;20.90;;;20.70;71.70;;;;;;5073901;28;20443;-75
2021/08/05 00:35:41;;;;;;;21.77;20.07;;;20.70;71.60;;;;;;5074047;28;20859;-75
2021/08/05 00:38:07;;;;;;;22.50;20.77;;;20.70;71.50;;;;;;5073809;28;20475;-75
2021/08/05 00:40:34;;;;;;;25.63;23.60;;;20.70;71.30;;;;;;5073817;28;20444;-75
2021/08/05 00:43:02;;;;;;;22.90;20.87;;;20.70;71.10;;;;;;5073939;28;20828;-75
2021/08/05 00:45:29;;;;;;;22.73;20.93;;;20.70;71.60;;;;;;5074228;28;20468;-75
2021/08/05 00:47:56;;;;;;;23.30;21.40;;;20.70;72.10;;;;;;5073702;28;20452;-75
2021/08/05 00:50:22;;;;;;;23.77;21.87;;;20.70;72.60;;;;;;5073691;28;20448;-75
2021/08/05 00:52:49;;;;;;;23.77;21.77;;;20.60;72.80;;;;;;5073710;28;20489;-75
2021/08/05 00:55:16;;;;;;;26.03;23.93;;;20.50;73.20;;;;;;5073552;28;20469;-75
2021/08/05 00:57:43;;;;;;;26.60;24.50;;;20.50;73.30;;;;;;5073562;28;20440;-75
2021/08/05 01:00:13;;;;;;;27.73;25.53;;;20.40;73.30;;;;;;5073549;28;20452;-75
2021/08/05 01:02:43;;;;;;;25.70;23.70;;;20.20;73.50;;;;;;5073478;28;20461;-75
2021/08/05 01:05:11;;;;;;;27.87;25.20;;;20.20;74.00;;;;;;5073460;28;20471;-75
2021/08/05 01:07:42;;;;;;;24.97;22.87;;;20.20;74.50;;;;;;5073480;28;20499;-75
2021/08/05 01:10:12;;;;;;;25.77;23.70;;;20.10;74.80;;;;;;5073048;28;20914;-75
2021/08/05 01:12:46;;;;;;;26.17;23.93;;;20.10;74.90;;;;;;5073638;28;20793;-75
2021/08/05 01:15:17;;;;;;;24.50;22.40;;;20.10;74.90;;;;;;5074141;28;20460;-75
2021/08/05 01:17:48;;;;;;;24.37;22.23;;;20.10;74.30;;;;;;5073110;28;20429;-75
2021/08/05 01:20:20;;;;;;;24.73;22.60;;;20.20;74.70;;;;;;5073963;28;20429;-75
2021/08/05 01:22:53;;;;;;;23.73;21.83;;;20.20;74.70;;;;;;5077373;28;20495;-75
2021/08/05 01:25:28;;;;;;;25.00;22.80;;;20.20;74.70;;;;;;5077091;28;20997;-75
2021/08/05 01:27:58;;;;;;;24.43;22.50;;;20.20;74.60;;;;;;5077435;28;20428;-75
2021/08/05 01:30:26;;;;;;;23.60;21.50;;;20.20;74.50;;;;;;5077092;28;20922;-75
2021/08/05 01:32:54;;;;;;;23.00;21.10;;;20.20;75.20;;;;;;5077328;28;20782;-75
2021/08/05 01:35:21;;;;;;;25.00;22.83;;;20.30;74.50;;;;;;5076875;28;20886;-75
2021/08/05 01:37:49;;;;;;;23.60;21.60;;;20.20;74.60;;;;;;5077217;28;20444;-75
2021/08/05 01:40:17;;;;;;;23.07;21.13;;;20.20;74.60;;;;;;5077182;28;20445;-75
2021/08/05 01:42:45;;;;;;;22.13;20.33;;;20.30;74.70;;;;;;5077090;28;20841;-75
2021/08/05 01:45:14;;;;;;;24.43;22.37;;;20.20;74.40;;;;;;5077849;28;20866;-75
2021/08/05 01:47:41;;;;;;;24.60;22.30;;;20.20;74.30;;;;;;5077060;28;20444;-75
2021/08/05 01:50:11;;;;;;;23.80;21.70;;;20.20;74.40;;;;;;5077193;28;20440;-75
2021/08/05 01:52:39;;;;;;;22.83;20.90;;;20.20;74.50;;;;;;5076913;28;20439;-75
2021/08/05 01:55:07;;;;;;;21.43;19.73;;;20.20;74.50;;;;;;5076812;28;20471;-75
2021/08/05 01:57:34;;;;;;;23.83;21.43;;;20.20;74.50;;;;;;5076836;28;20444;-75
2021/08/05 02:00:00;;;;;;;21.90;20.20;;;20.10;74.50;;;;;;5076760;28;20451;-75
2021/08/05 02:02:29;;;;;;;23.73;21.63;;;20.10;74.60;;;;;;5076670;28;20444;-75
2021/08/05 02:05:02;;;;;;;24.37;22.27;;;20.10;74.80;;;;;;5076343;28;20986;-75
2021/08/05 02:07:32;;;;;;;22.77;20.90;;;20.10;75.10;;;;;;5076745;28;20440;-75
2021/08/05 02:10:02;;;;;;;22.43;20.27;;;20.10;75.20;;;;;;5076608;28;20449;-75
2021/08/05 02:12:33;;;;;;;22.83;20.83;;;20.00;75.20;;;;;;5076831;28;20429;-75
2021/08/05 02:15:03;;;;;;;23.70;21.60;;;20.10;75.40;;;;;;5076455;28;20479;-75
2021/08/05 02:17:34;;;;;;;24.50;22.50;;;20.00;75.60;;;;;;5076434;28;20440;-75
2021/08/05 02:20:02;;;;;;;24.83;22.73;;;20.00;75.70;;;;;;5076500;28;20431;-75
2021/08/05 02:22:29;;;;;;;24.37;22.43;;;20.00;75.70;;;;;;5075969;28;20817;-75
2021/08/05 02:24:56;;;;;;;25.90;23.70;;;20.00;75.70;;;;;;5075935;28;20472;-75
2021/08/05 02:27:23;;;;;;;25.03;22.93;;;20.00;75.90;;;;;;5076317;28;20440;-75
2021/08/05 02:29:50;;;;;;;25.03;22.83;;;19.90;75.90;;;;;;5076260;28;20445;-75
2021/08/05 02:32:17;;;;;;;24.63;22.10;;;19.90;76.10;;;;;;5075415;28;20444;-75
2021/08/05 02:34:47;;;;;;;23.30;21.50;;;19.90;76.30;;;;;;5076094;28;20457;-75
2021/08/05 02:37:13;;;;;;;25.20;23.00;;;19.90;76.50;;;;;;5076090;28;20444;-75
2021/08/05 02:39:41;;;;;;;25.67;23.43;;;19.90;76.60;;;;;;5076042;28;20447;-75
2021/08/05 02:42:09;;;;;;;22.73;20.73;;;19.90;76.90;;;;;;5076007;28;20463;-75
2021/08/05 02:44:38;;;;;;;25.13;22.60;;;19.90;77.20;;;;;;5075864;28;20569;-75
2021/08/05 02:47:06;;;;;;;33.73;23.50;;;19.80;77.20;;;;;;5075941;28;20444;-75
2021/08/05 02:49:34;;;;;;;25.30;21.27;;;19.80;77.00;;;;;;5075606;28;20935;-75
2021/08/05 02:52:02;;;;;;;29.87;20.90;;;19.80;76.20;;;;;;5076128;28;20440;-75
2021/08/05 02:54:29;;;;;;;30.07;22.80;;;19.80;75.80;;;;;;5075676;28;20475;-75
2021/08/05 02:56:57;;;;;;;28.33;23.20;;;19.80;76.00;;;;;;5075725;28;20445;-75
2021/08/05 02:59:26;;;;;;;26.20;23.50;;;19.80;76.20;;;;;;5075750;28;20444;-75
2021/08/05 03:01:53;;;;;;;31.57;23.43;;;19.80;76.10;;;;;;5075657;28;20484;-75
2021/08/05 03:04:20;;;;;;;30.20;21.90;;;19.80;76.40;;;;;;5075473;28;20515;-75
2021/08/05 03:06:47;;;;;;;27.13;23.93;;;19.80;76.30;;;;;;5075640;28;20448;-75
2021/08/05 03:09:15;;;;;;;27.50;23.73;;;19.80;76.40;;;;;;5075228;28;20935;-75
2021/08/05 03:11:42;;;;;;;27.60;24.67;;;19.80;76.80;;;;;;5075495;28;20464;-75
2021/08/05 03:14:08;;;;;;;26.77;23.57;;;19.80;77.10;;;;;;5075340;28;20456;-75
2021/08/05 03:16:35;;;;;;;29.30;25.07;;;19.80;77.10;;;;;;5075051;28;20958;-75
2021/08/05 03:19:02;;;;;;;36.07;24.07;;;19.80;77.10;;;;;;5075326;28;20449;-75
2021/08/05 03:21:29;;;;;;;35.33;25.47;;;19.80;76.80;;;;;;5075111;28;20448;-75
2021/08/05 03:23:55;;;;;;;35.23;23.40;;;19.80;76.60;;;;;;5075074;28;20491;-75
2021/08/05 03:26:23;;;;;;;29.70;23.00;;;19.80;76.20;;;;;;5075175;28;20441;-75
2021/08/05 03:28:50;;;;;;;36.73;24.50;;;19.80;75.90;;;;;;5075167;28;20436;-75
2021/08/05 03:31:17;;;;;;;43.23;26.00;;;19.80;76.10;;;;;;5075084;28;20445;-75
2021/08/05 03:33:43;;;;;;;30.33;24.80;;;19.80;76.30;;;;;;5074951;28;20441;-75
2021/08/05 03:36:10;;;;;;;30.87;25.67;;;19.80;76.40;;;;;;5074997;28;20448;-75
2021/08/05 03:38:37;;;;;;;26.63;23.77;;;19.80;76.70;;;;;;5074871;28;20449;-75
2021/08/05 03:41:05;;;;;;;35.43;28.43;;;19.80;77.00;;;;;;5074852;28;20522;-75
2021/08/05 03:43:33;;;;;;;30.17;27.00;;;19.80;77.20;;;;;;5073909;28;20480;-75
2021/08/05 03:46:00;;;;;;;31.00;27.80;;;19.80;77.50;;;;;;5074467;28;20447;-75
2021/08/05 03:48:27;;;;;;;31.27;23.40;;;19.80;77.80;;;;;;5074702;28;20539;-75
2021/08/05 03:50:54;;;;;;;29.40;23.20;;;19.80;77.80;;;;;;5074404;28;20783;-75
2021/08/05 03:53:21;;;;;;;25.10;22.30;;;19.80;78.60;;;;;;5074621;28;20440;-75
2021/08/05 03:55:47;;;;;;;33.13;26.80;;;19.80;77.80;;;;;;5074570;28;20468;-75
2021/08/05 03:58:14;;;;;;;28.33;25.43;;;19.80;78.00;;;;;;5074305;28;20448;-75
2021/08/05 04:00:42;;;;;;;29.63;26.80;;;19.80;78.20;;;;;;5074509;28;20456;-75
2021/08/05 04:03:09;;;;;;;29.73;26.53;;;19.80;78.40;;;;;;5074032;28;20942;-75
2021/08/05 04:05:35;;;;;;;31.70;28.30;;;19.70;78.20;;;;;;5074320;28;20469;-75
2021/08/05 04:08:02;;;;;;;30.93;27.83;;;19.80;78.30;;;;;;5074083;28;20930;-75
2021/08/05 04:10:29;;;;;;;31.70;27.33;;;19.70;78.10;;;;;;5074567;28;20444;-75
2021/08/05 04:12:56;;;;;;;31.20;26.60;;;19.70;78.20;;;;;;5074259;28;20468;-75
2021/08/05 04:15:22;;;;;;;29.77;26.90;;;19.70;78.20;;;;;;5074167;28;20465;-75
2021/08/05 04:17:51;;;;;;;31.43;28.37;;;19.80;78.50;;;;;;5073859;28;20441;-75
2021/08/05 04:20:19;;;;;;;33.70;30.77;;;19.70;78.50;;;;;;5074135;28;20448;-75
2021/08/05 04:22:45;;;;;;;32.10;28.70;;;19.80;78.70;;;;;;5073769;28;20468;-75
2021/08/05 04:25:12;;;;;;;31.30;28.30;;;19.80;78.70;;;;;;5073884;28;20491;-75
2021/08/05 04:27:40;;;;;;;30.57;27.73;;;19.80;79.00;;;;;;5073991;28;20809;-75
2021/08/05 04:30:08;;;;;;;30.90;27.83;;;19.80;79.10;;;;;;5073937;28;20449;-75
2021/08/05 04:32:35;;;;;;;31.77;28.40;;;19.80;79.30;;;;;;5073584;28;20494;-75
2021/08/05 04:35:04;;;;;;;29.80;27.00;;;19.80;79.30;;;;;;5073865;28;20465;-75
2021/08/05 04:37:31;;;;;;;28.27;25.67;;;19.80;79.30;;;;;;5073827;28;20451;-75
2021/08/05 04:39:58;;;;;;;28.93;26.27;;;19.80;79.30;;;;;;5073794;28;20449;-75
2021/08/05 04:42:24;;;;;;;27.07;24.63;;;19.80;79.40;;;;;;5073754;28;20445;-75
2021/08/05 04:44:51;;;;;;;31.40;28.40;;;19.80;79.50;;;;;;5073611;28;20887;-75
2021/08/05 04:47:18;;;;;;;27.73;25.23;;;19.80;79.50;;;;;;5073736;28;20481;-75
2021/08/05 04:49:45;;;;;;;28.83;26.23;;;19.80;79.50;;;;;;5073690;28;20445;-75
2021/08/05 04:52:13;;;;;;;31.00;27.90;;;19.80;79.40;;;;;;5073623;28;20440;-76
2021/08/05 04:54:39;;;;;;;28.67;26.20;;;19.90;79.60;;;;;;5073037;28;20993;-76
2021/08/05 04:57:06;;;;;;;28.33;25.53;;;19.80;79.40;;;;;;5073623;28;20451;-76
2021/08/05 04:59:33;;;;;;;32.47;29.07;;;19.90;79.20;;;;;;5073799;28;20440;-76
2021/08/05 05:02:00;;;;;;;28.77;25.97;;;19.90;79.20;;;;;;5073553;28;20452;-74
2021/08/05 05:04:26;;;;;;;28.30;25.70;;;19.90;79.20;;;;;;5073424;28;20487;-75
2021/08/05 05:06:53;;;;;;;30.47;27.17;;;19.90;79.10;;;;;;5073503;28;20494;-75
2021/08/05 05:09:21;;;;;;;31.80;28.57;;;19.80;79.10;;;;;;5073452;28;20448;-75
2021/08/05 05:11:48;;;;;;;29.93;26.70;;;19.90;79.10;;;;;;5073426;28;20447;-75
2021/08/05 05:14:14;;;;;;;30.53;26.60;;;19.90;79.10;;;;;;5073307;28;20464;-75
2021/08/05 05:16:41;;;;;;;33.63;24.70;;;19.90;79.30;;;;;;5073436;28;20452;-75
2021/08/05 05:19:08;;;;;;;33.43;25.23;;;19.90;79.40;;;;;;5073416;28;20440;-74
2021/08/05 05:21:34;;;;;;;27.50;24.70;;;19.90;79.40;;;;;;5072835;28;20840;-75
2021/08/05 05:24:01;;;;;;;31.67;27.23;;;19.90;79.70;;;;;;5073229;28;20511;-75
2021/08/05 05:26:29;;;;;;;28.50;25.47;;;20.00;80.00;;;;;;5073304;28;20445;-76
2021/08/05 05:28:56;;;;;;;28.43;23.70;;;20.10;80.10;;;;;;5073251;28;20436;-75
2021/08/05 05:31:22;;;;;;;28.50;20.33;;;20.10;80.20;;;;;;5072932;28;20452;-75
2021/08/05 05:33:49;;;;;;;25.83;23.13;;;20.20;80.00;;;;;;5073154;28;20440;-75
2021/08/05 05:36:16;;;;;;;25.27;22.63;;;20.30;79.40;;;;;;5073179;28;20436;-75
2021/08/05 05:38:42;;;;;;;21.90;19.60;;;20.40;79.30;;;;;;5073154;28;20448;-75
2021/08/05 05:41:09;;;;;;;23.47;21.10;;;20.50;78.90;;;;;;5073148;28;20447;-74
2021/08/05 05:43:37;;;;;;;23.30;21.13;;;20.50;78.40;;;;;;5072676;28;20965;-75
2021/08/05 05:46:04;;;;;;;22.53;20.20;;;20.60;77.80;;;;;;5073070;28;20444;-75
2021/08/05 05:48:31;;;;;;;21.27;19.23;;;20.60;77.20;;;;;;5073159;28;20444;-74
2021/08/05 05:50:57;;;;;;;23.97;21.57;;;20.70;77.10;;;;;;5073098;28;20440;-76
2021/08/05 05:53:24;;;;;;;22.87;20.47;;;20.70;77.00;;;;;;5073030;28;20448;-76
2021/08/05 05:55:52;;;;;;;24.93;22.43;;;20.80;77.20;;;;;;5072962;28;20463;-76
2021/08/05 05:58:19;;;;;;;22.20;20.10;;;20.80;77.60;;;;;;5073002;28;20506;-76
2021/08/05 06:00:47;;;;;;;22.70;20.60;;;20.80;77.80;;;;;;5073052;28;20440;-76
2021/08/05 06:03:14;;;;;;;19.70;18.00;;;20.80;77.90;;;;;;5072990;28;20822;-76
2021/08/05 06:05:40;;;;;;;20.70;18.70;;;20.90;78.00;;;;;;5072845;28;20480;-75
2021/08/05 06:08:07;;;;;;;22.00;19.87;;;20.90;77.80;;;;;;5075942;28;20806;-76
2021/08/05 06:10:34;;;;;;;20.23;17.00;;;21.00;77.80;;;;;;5076645;28;20892;-75
2021/08/05 06:13:01;;;;;;;22.30;20.17;;;21.00;77.50;;;;;;5076604;28;20451;-75
2021/08/05 06:15:28;;;;;;;24.00;21.80;;;21.10;77.30;;;;;;5076510;28;20488;-75
2021/08/05 06:17:56;;;;;;;26.43;23.47;;;21.20;77.40;;;;;;5076525;28;20447;-75
2021/08/05 06:20:22;;;;;;;19.20;17.30;;;21.20;76.80;;;;;;5076478;28;20441;-75
2021/08/05 06:22:50;;;;;;;23.63;21.20;;;21.30;76.70;;;;;;5076107;28;20461;-75
2021/08/05 06:25:17;;;;;;;26.77;24.27;;;21.40;75.90;;;;;;5076287;28;20476;-75
2021/08/05 06:27:44;;;;;;;22.67;20.37;;;21.40;75.20;;;;;;5075984;28;20502;-75
2021/08/05 06:30:12;;;;;;;25.00;22.57;;;21.50;75.50;;;;;;5076154;28;20449;-75
2021/08/05 06:32:39;;;;;;;23.60;21.10;;;21.50;75.40;;;;;;5076253;28;20448;-75
2021/08/05 06:35:09;;;;;;;26.97;24.53;;;21.60;75.40;;;;;;5076889;28;20460;-75
2021/08/05 06:37:36;;;;;;;24.40;20.93;;;21.60;75.20;;;;;;5076151;28;20455;-75
2021/08/05 06:40:05;;;;;;;28.13;25.20;;;21.60;75.20;;;;;;5076396;28;20440;-75
2021/08/05 06:42:33;;;;;;;26.03;23.43;;;21.70;74.90;;;;;;5075982;28;20452;-75
2021/08/05 06:45:00;;;;;;;27.80;23.00;;;21.70;74.10;;;;;;5075914;28;20512;-73
2021/08/05 06:47:26;;;;;;;21.30;19.40;;;21.70;74.10;;;;;;5076001;28;20449;-72
2021/08/05 06:49:53;;;;;;;23.60;21.40;;;21.70;74.50;;;;;;5076080;28;20425;-71
2021/08/05 06:52:21;;;;;;;28.07;25.33;;;21.80;75.10;;;;;;5075808;28;20449;-72
2021/08/05 06:54:48;;;;;;;22.47;20.40;;;21.80;75.40;;;;;;5075690;28;20461;-73
2021/08/05 06:57:14;;;;;;;21.03;19.10;;;21.90;76.10;;;;;;5075848;28;20448;-73
2021/08/05 06:59:41;;;;;;;26.80;24.00;;;22.00;76.30;;;;;;5075742;28;20441;-73
2021/08/05 07:02:08;;;;;;;26.90;24.50;;;22.00;75.30;;;;;;5075677;28;20444;-74
2021/08/05 07:04:35;;;;;;;25.10;23.00;;;22.10;74.40;;;;;;5075481;28;20503;-74
2021/08/05 07:07:01;;;;;;;26.17;23.87;;;22.10;73.70;;;;;;5075466;28;20466;-74
2021/08/05 07:09:29;;;;;;;19.13;17.40;;;22.20;73.70;;;;;;5075600;28;20801;-74
2021/08/05 07:11:56;;;;;;;23.33;20.97;;;22.30;73.60;;;;;;5075760;28;20432;-74
2021/08/05 07:14:23;;;;;;;24.83;22.40;;;22.40;72.90;;;;;;5075224;28;20820;-74
2021/08/05 07:16:49;;;;;;;29.10;26.60;;;22.40;72.80;;;;;;5075308;28;20441;-74
2021/08/05 07:19:16;;;;;;;28.27;25.57;;;22.40;72.40;;;;;;5075204;28;20449;-74
2021/08/05 07:21:43;;;;;;;22.90;20.90;;;22.40;72.60;;;;;;5075166;28;20456;-74
2021/08/05 07:24:12;;;;;;;28.83;25.93;;;22.50;72.50;;;;;;5075081;28;20460;-75
2021/08/05 07:26:40;;;;;;;25.40;22.97;;;22.40;72.50;;;;;;5075124;28;20536;-75
2021/08/05 07:29:07;;;;;;;29.83;24.83;;;22.40;72.20;;;;;;5075728;28;20813;-74
2021/08/05 07:31:34;;;;;;;29.97;27.47;;;22.40;71.80;;;;;;5075379;28;20846;-74
2021/08/05 07:34:01;;;;;;;25.50;23.27;;;22.50;71.80;;;;;;5075568;28;20457;-75
2021/08/05 07:36:28;;;;;;;20.40;18.60;;;22.50;71.60;;;;;;5075808;28;20436;-74
2021/08/05 07:38:55;;;;;;;23.37;20.70;;;22.60;71.70;;;;;;5075019;28;20444;-74
2021/08/05 07:41:21;;;;;;;23.40;21.47;;;22.70;71.90;;;;;;5075042;28;20452;-75
2021/08/05 07:43:49;;;;;;;21.53;19.47;;;22.80;71.90;;;;;;5074894;28;20436;-75
2021/08/05 07:46:16;;;;;;;21.30;19.30;;;22.90;71.20;;;;;;5074845;28;20484;-75
2021/08/05 07:48:43;;;;;;;20.90;18.70;;;23.00;70.40;;;;;;5074548;28;20939;-75
2021/08/05 07:51:10;;;;;;;17.33;15.57;;;23.20;69.20;;;;;;5074685;28;20852;-75
2021/08/05 07:53:36;;;;;;;21.67;18.50;;;23.40;67.80;;;;;;5074338;28;20926;-75
2021/08/05 07:56:03;;;;;;;21.13;17.10;;;23.60;67.10;;;;;;5074605;28;20437;-75
2021/08/05 07:58:30;;;;;;;13.37;12.17;;;23.70;66.40;;;;;;5074837;28;20440;-74
2021/08/05 08:00:58;;;;;;;15.67;13.70;;;23.80;65.20;;;;;;5074545;28;20451;-75
2021/08/05 08:03:25;;;;;;;18.43;16.60;;;23.90;65.10;;;;;;5074317;28;20445;-76
2021/08/05 08:05:51;;;;;;;18.10;16.57;;;23.90;65.30;;;;;;5075166;28;20482;-76
2021/08/05 08:08:18;;;;;;;18.90;17.00;;;24.00;65.40;;;;;;5074429;28;20465;-76
2021/08/05 08:10:45;;;;;;;18.10;15.00;;;24.10;65.40;;;;;;5074661;28;20448;-77
2021/08/05 08:13:12;;;;;;;19.93;15.80;;;24.00;64.10;;;;;;5074290;28;20456;-76
2021/08/05 08:15:39;;;;;;;15.73;12.67;;;24.00;63.20;;;;;;5074035;28;20545;-76
2021/08/05 08:18:07;;;;;;;16.93;14.90;;;24.00;62.90;;;;;;5074229;28;20438;-76
2021/08/05 08:20:36;;;;;;;14.77;13.27;;;24.10;62.40;;;;;;5074122;28;20889;-76
2021/08/05 08:23:03;;;;;;;14.83;13.33;;;24.20;62.20;;;;;;5073813;28;20468;-76
2021/08/05 08:25:30;;;;;;;18.23;12.03;;;24.30;62.80;;;;;;5074042;28;20480;-76
2021/08/05 08:27:57;;;;;;;11.50;10.30;;;24.50;62.20;;;;;;5074018;28;20440;-76
2021/08/05 08:30:24;;;;;;;15.33;13.80;;;24.50;61.10;;;;;;5073122;28;20834;-76
2021/08/05 08:32:51;;;;;;;18.53;16.63;;;24.70;60.30;;;;;;5073659;28;20938;-76
2021/08/05 08:35:20;;;;;;;16.83;12.67;;;24.70;59.30;;;;;;5073972;28;20456;-76
2021/08/05 08:37:46;;;;;;;14.10;12.70;;;24.80;59.20;;;;;;5074115;28;20452;-76
2021/08/05 08:40:15;;;;;;;12.97;11.67;;;24.80;59.40;;;;;;5073848;28;20455;-76
2021/08/05 08:42:42;;;;;;;11.33;9.97;;;24.90;59.20;;;;;;5073617;28;20451;-76
2021/08/05 08:45:10;;;;;;;14.20;11.50;;;25.10;59.10;;;;;;5073618;28;20552;-76
2021/08/05 08:47:38;;;;;;;14.00;10.10;;;25.20;59.10;;;;;;5073773;28;20448;-76
2021/08/05 08:50:06;;;;;;;13.07;11.83;;;25.40;58.90;;;;;;5073607;28;20449;-76
2021/08/05 08:52:37;;;;;;;14.57;13.17;;;25.50;58.50;;;;;;5073433;28;20448;-76
2021/08/05 08:55:06;;;;;;;12.87;11.67;;;25.70;58.20;;;;;;5073583;28;20522;-76
2021/08/05 08:57:35;;;;;;;15.60;14.10;;;25.80;58.00;;;;;;5072851;28;20445;-76
2021/08/05 09:00:03;;;;;;;13.47;11.20;;;26.00;57.20;;;;;;5073632;28;20440;-76
2021/08/05 09:02:31;;;;;;;14.80;10.23;;;26.10;56.60;;;;;;5073664;28;20448;-75
2021/08/05 09:04:59;;;;;;;11.80;10.60;;;26.10;55.90;;;;;;5073409;28;20480;-75
2021/08/05 09:07:26;;;;;;;11.67;10.70;;;26.20;56.00;;;;;;5073729;28;20441;-76
2021/08/05 09:09:54;;;;;;;17.83;16.03;;;26.30;55.90;;;;;;5073587;28;20444;-76
2021/08/05 09:12:20;;;;;;;12.57;11.57;;;26.40;55.50;;;;;;5073389;28;20452;-76
2021/08/05 09:14:49;;;;;;;17.07;15.37;;;26.40;54.00;;;;;;5073406;28;20465;-76
2021/08/05 09:17:18;;;;;;;16.60;11.77;;;26.50;53.60;;;;;;5073438;28;20452;-74
2021/08/05 09:19:45;;;;;;;12.10;10.87;;;26.50;52.50;;;;;;5073442;28;20455;-76
2021/08/05 09:22:12;;;;;;;13.57;12.17;;;26.60;52.60;;;;;;5073269;28;20452;-76
2021/08/05 09:24:39;;;;;;;17.00;15.47;;;26.80;53.10;;;;;;5072840;28;21001;-76
2021/08/05 09:27:07;;;;;;;11.93;10.63;;;26.90;52.70;;;;;;5073291;28;20445;-74
2021/08/05 09:29:44;;;;;;;14.53;13.27;;;27.00;52.30;;;;;;5072925;28;20454;-76
2021/08/05 09:32:11;;;;;;;11.77;10.67;;;27.10;51.20;;;;;;5073013;28;20906;-74
2021/08/05 09:34:40;;;;;;;10.60;9.60;;;27.20;50.80;;;;;;5073214;28;20464;-76
2021/08/05 09:37:08;;;;;;;8.50;7.70;;;27.40;51.40;;;;;;5073245;28;20444;-76
2021/08/05 09:39:38;;;;;;;13.33;12.33;;;27.50;51.50;;;;;;5073412;28;20436;-76
2021/08/05 09:42:07;;;;;;;13.47;12.30;;;27.60;51.40;;;;;;5074657;28;20467;-75
2021/08/05 09:44:45;;;;;;;11.03;10.03;;;27.70;50.20;;;;;;5077198;28;20471;-74
2021/08/05 09:47:13;;;;;;;11.50;10.40;;;27.80;48.90;;;;;;5077074;28;20949;-75
2021/08/05 09:49:53;;;;;;;9.13;8.23;;;27.90;49.00;;;;;;5077406;28;20497;-75
2021/08/05 09:52:27;;;;;;;11.60;10.23;;;28.10;49.10;;;;;;5077075;28;20432;-75
2021/08/05 09:54:54;;;;;;;12.77;11.43;;;28.20;49.00;;;;;;5076815;28;20495;-76
2021/08/05 09:57:24;;;;;;;8.40;7.70;;;28.40;47.70;;;;;;5076826;28;20451;-76
2021/08/05 09:59:56;;;;;;;8.27;7.47;;;28.50;46.50;;;;;;5076573;28;20494;-76
2021/08/05 10:02:24;;;;;;;10.70;9.70;;;28.80;46.70;;;;;;5076822;28;20523;-75
2021/08/05 10:04:51;;;;;;;8.30;7.50;;;29.10;46.60;;;;;;5076693;28;20567;-75
2021/08/05 10:07:18;;;;;;;9.00;8.27;;;29.60;46.30;;;;;;5076998;28;20425;-75
2021/08/05 10:09:45;;;;;;;9.30;8.30;;;30.10;44.40;;;;;;5076684;28;20467;-75
2021/08/05 10:12:19;;;;;;;10.97;9.97;;;30.70;44.50;;;;;;5076379;28;20451;-74
2021/08/05 10:14:48;;;;;;;10.27;9.27;;;31.20;44.00;;;;;;5076270;28;20502;-76
2021/08/05 10:17:16;;;;;;;9.03;8.10;;;31.70;43.00;;;;;;5076352;28;20562;-75
2021/08/05 10:19:45;;;;;;;12.23;11.13;;;31.90;42.00;;;;;;5076211;28;21008;-76
2021/08/05 10:22:13;;;;;;;9.47;8.53;;;32.20;40.60;;;;;;5076221;28;20474;-75
2021/08/05 10:24:41;;;;;;;9.40;8.60;;;32.40;39.40;;;;;;5076751;28;20800;-75
2021/08/05 10:27:11;;;;;;;9.60;8.73;;;32.60;37.80;;;;;;5076001;28;20472;-75
2021/08/05 10:29:39;;;;;;;14.30;13.13;;;32.70;36.70;;;;;;5076348;28;20448;-75
2021/08/05 10:32:09;;;;;;;15.17;13.97;;;33.00;36.20;;;;;;5076146;28;20444;-75
2021/08/05 10:34:37;;;;;;;13.63;12.37;;;33.20;34.00;;;;;;5076173;28;20471;-75
2021/08/05 10:37:06;;;;;;;9.37;8.47;;;33.30;35.40;;;;;;5076051;28;20530;-75
2021/08/05 10:39:34;;;;;;;7.73;7.10;;;33.40;35.50;;;;;;5076247;28;20440;-75
2021/08/05 10:42:02;;;;;;;7.80;7.20;;;33.50;35.70;;;;;;5075867;28;20965;-75
2021/08/05 10:44:29;;;;;;;9.90;8.70;;;33.70;35.10;;;;;;5076136;28;20475;-75
2021/08/05 10:46:59;;;;;;;8.97;7.70;;;34.00;35.40;;;;;;5075978;28;20472;-75
2021/08/05 10:49:28;;;;;;;7.83;7.03;;;34.40;33.20;;;;;;5075524;28;20957;-75
2021/08/05 10:51:54;;;;;;;8.33;7.63;;;35.00;32.60;;;;;;5075844;28;20850;-75
2021/08/05 10:54:57;;;;;;;8.03;7.43;;;35.60;29.80;;;;;;5075503;28;20463;-75
2021/08/05 10:57:26;;;;;;;4.93;4.53;;;36.30;28.60;;;;;;5070583;28;20447;-75
2021/08/05 11:00:01;;;;;;;4.17;3.87;;;36.90;28.80;;;;;;5075661;28;20451;-75
2021/08/05 11:02:43;;;;;;;6.40;5.90;;;37.50;27.70;;;;;;5075805;28;20190;-75
2021/08/05 11:05:13;;;;;;;5.13;4.72;;;37.80;26.00;;;;;;5073486;28;20222;-75
2021/08/05 11:07:40;;;;;;;6.00;5.50;;;37.60;26.50;;;;;;5075600;28;20198;-75
2021/08/05 11:10:22;;;;;;;5.77;4.90;;;37.30;27.10;;;;;;5075628;28;20201;-75
2021/08/05 11:12:50;;;;;;;6.00;5.47;;;36.70;27.80;;;;;;5075637;28;20315;-75
2021/08/05 11:15:48;;;;;;;7.37;5.40;;;36.00;29.10;;;;;;5074918;28;20649;-74
2021/08/05 11:18:23;;;;;;;8.13;6.10;;;35.40;30.30;;;;;;5075806;28;20487;-75
2021/08/05 11:21:35;;;;;;;5.80;5.37;;;34.70;31.40;;;;;;5076361;28;20436;-74
2021/08/05 11:24:03;;;;;;;7.27;6.73;;;34.20;32.00;;;;;;5074873;28;20957;-75
2021/08/05 11:26:30;;;;;;;6.43;5.60;;;33.80;32.90;;;;;;5075030;28;20997;-75
2021/08/05 11:28:57;;;;;;;5.70;5.30;;;33.50;32.90;;;;;;5075065;28;20462;-76
2021/08/05 11:31:37;;;;;;;6.50;6.10;;;33.40;33.60;;;;;;5074872;28;20439;-76
2021/08/05 11:34:08;;;;;;;7.27;6.67;;;33.30;33.00;;;;;;5075156;28;20500;-76
2021/08/05 11:36:46;;;;;;;6.23;5.83;;;33.00;33.70;;;;;;5075092;28;20428;-76
2021/08/05 11:39:29;;;;;;;5.97;4.90;;;32.60;34.80;;;;;;5075022;28;20447;-76
2021/08/05 11:42:03;;;;;;;5.43;5.00;;;32.20;35.50;;;;;;5074873;28;20525;-76
2021/08/05 11:44:33;;;;;;;7.43;6.57;;;31.90;36.40;;;;;;5074895;28;20499;-76
2021/08/05 11:47:29;;;;;;;6.13;5.73;;;31.60;37.40;;;;;;5074916;28;20476;-76
2021/08/05 11:49:58;;;;;;;5.20;4.80;;;31.40;37.30;;;;;;5074481;28;20917;-76
2021/08/05 11:52:34;;;;;;;5.53;4.50;;;31.20;37.90;;;;;;5074572;28;20479;-76
2021/08/05 11:55:07;;;;;;;6.67;5.50;;;31.10;38.40;;;;;;5074066;28;20463;-76
2021/08/05 11:57:37;;;;;;;4.53;4.13;;;30.90;37.70;;;;;;5074553;28;20428;-76
2021/08/05 12:00:06;;;;;;;5.57;5.03;;;30.90;38.20;;;;;;5074432;28;20795;-76
2021/08/05 12:02:33;;;;;;;5.60;5.20;;;30.90;38.60;;;;;;5074070;28;20974;-76
2021/08/05 12:05:00;;;;;;;5.40;4.90;;;31.10;38.40;;;;;;5073168;28;20464;-76
2021/08/05 12:07:29;;;;;;;5.40;4.67;;;31.90;37.00;;;;;;5074183;28;20491;-76
2021/08/05 12:10:14;;;;;;;6.67;4.87;;;33.10;34.50;;;;;;5074269;28;20444;-76
2021/08/05 12:12:45;;;;;;;4.90;4.40;;;34.40;33.30;;;;;;5074220;28;20790;-76
2021/08/05 12:15:14;;;;;;;4.00;3.70;;;35.20;30.20;;;;;;5074130;28;20464;-76
2021/08/05 12:17:47;;;;;;;4.20;3.90;;;35.20;29.50;;;;;;5073763;28;20444;-76
2021/08/05 12:20:17;;;;;;;4.13;3.50;;;35.40;29.90;;;;;;5074093;28;20428;-74
2021/08/05 12:22:45;;;;;;;5.83;4.00;;;36.00;29.00;;;;;;5074259;28;20452;-75
2021/08/05 12:25:40;;;;;;;3.97;3.67;;;37.10;28.90;;;;;;5073822;28;20825;-76
2021/08/05 12:28:10;;;;;;;3.63;3.33;;;38.30;28.10;;;;;;5073910;28;20186;-76
2021/08/05 12:30:40;;;;;;;4.18;3.03;;;39.50;25.80;;;;;;5073711;28;20531;-77
2021/08/05 12:33:10;;;;;;;2.78;2.55;;;40.40;24.50;;;;;;5073636;28;20644;-76
2021/08/05 12:35:38;;;;;;;2.50;2.10;;;41.30;23.70;;;;;;5074126;28;20221;-75
2021/08/05 12:38:07;;;;;;;3.33;1.83;;;42.10;22.00;;;;;;5073387;28;20206;-75